Time;durP1;ratioP1;P1;durP2;ratioP2;P2;SDS_P1;SDS_P2;PMS_P1;PMS_P2;Temp;Humidity;BMP_temperature;BMP_pressure;BME280_temperature;BME280_humidity;BME280_pressure;Samples;Min_cycle;Max_cycle;Signal;HPM_P1;HPM_P2
2022/06/30 00:02:07;;;;;;;5.80;5.00;;;24.00;80.90;;;;;;5027475;28;20029;-92
2022/06/30 00:04:33;;;;;;;7.82;5.22;;;24.00;81.10;;;;;;5098464;28;20042;-93
2022/06/30 00:06:59;;;;;;;7.90;5.30;;;24.00;81.40;;;;;;5089639;28;20038;-92
2022/06/30 00:09:24;;;;;;;7.88;5.55;;;23.90;81.70;;;;;;5082033;28;20074;-94
2022/06/30 00:11:50;;;;;;;7.38;5.05;;;23.90;81.90;;;;;;5101712;28;20087;-92
2022/06/30 00:14:16;;;;;;;6.20;4.97;;;23.90;82.20;;;;;;5101798;28;20022;-92
2022/06/30 00:16:42;;;;;;;7.18;5.28;;;23.80;82.40;;;;;;5085166;28;20030;-93
2022/06/30 00:19:07;;;;;;;6.78;5.60;;;23.80;82.70;;;;;;5102097;28;20362;-93
2022/06/30 00:21:33;;;;;;;6.22;5.32;;;23.80;82.80;;;;;;5097355;28;20033;-93
2022/06/30 00:23:59;;;;;;;6.07;5.15;;;23.80;83.00;;;;;;5023755;28;20029;-93
2022/06/30 00:26:25;;;;;;;9.07;6.03;;;23.70;83.30;;;;;;5032828;28;20040;-93
2022/06/30 00:28:50;;;;;;;11.18;6.13;;;23.70;83.60;;;;;;5092958;28;20121;-93
2022/06/30 00:31:16;;;;;;;8.52;5.75;;;23.70;83.70;;;;;;5081090;28;20026;-93
2022/06/30 00:33:42;;;;;;;7.72;5.72;;;23.70;83.90;;;;;;5032860;28;20026;-94
2022/06/30 00:36:08;;;;;;;6.93;6.15;;;23.70;84.30;;;;;;5100006;28;20052;-94
2022/06/30 00:38:33;;;;;;;7.93;6.38;;;23.60;84.40;;;;;;5099803;28;20022;-93
2022/06/30 00:40:59;;;;;;;8.30;6.70;;;23.60;84.50;;;;;;5103284;28;20078;-92
2022/06/30 00:43:25;;;;;;;8.18;6.50;;;23.60;84.90;;;;;;5108454;28;20022;-93
2022/06/30 00:45:51;;;;;;;9.10;6.85;;;23.60;85.20;;;;;;5115668;28;20469;-93
2022/06/30 00:48:18;;;;;;;10.25;7.43;;;23.60;85.60;;;;;;5101453;28;20040;-92
2022/06/30 00:50:44;;;;;;;9.68;6.97;;;23.50;85.80;;;;;;5032601;28;20045;-92
2022/06/30 00:53:11;;;;;;;8.18;7.22;;;23.50;86.00;;;;;;5024286;28;20064;-93
2022/06/30 00:55:37;;;;;;;7.82;7.03;;;23.50;86.10;;;;;;5083340;28;20500;-93
2022/06/30 00:58:05;;;;;;;8.57;7.22;;;23.50;86.30;;;;;;5101245;27;20054;-94
2022/06/30 01:00:40;;;;;;;11.93;8.07;;;23.50;86.30;;;;;;5087883;28;20030;-94
2022/06/30 01:03:08;;;;;;;7.60;6.80;;;23.40;86.60;;;;;;5092972;28;20025;-93
2022/06/30 01:05:35;;;;;;;8.32;6.70;;;23.40;86.90;;;;;;5032540;27;20033;-93
2022/06/30 01:08:04;;;;;;;12.68;7.38;;;23.40;87.20;;;;;;5135707;27;20063;-93
2022/06/30 01:13:15;;;;;;;8.27;7.15;;;23.30;86.90;;;;;;5135062;27;20070;-93
2022/06/30 01:15:41;;;;;;;9.43;8.10;;;23.30;87.10;;;;;;5100072;27;20051;-93
2022/06/30 01:18:06;;;;;;;9.05;7.65;;;23.30;87.60;;;;;;5143850;27;20039;-93
2022/06/30 01:20:33;;;;;;;9.30;7.90;;;23.20;87.70;;;;;;5117243;27;20027;-91
2022/06/30 01:23:02;;;;;;;8.88;7.88;;;23.10;88.20;;;;;;5111885;28;20040;-93
2022/06/30 01:25:28;;;;;;;10.43;7.93;;;23.10;88.60;;;;;;5066625;28;20110;-94
2022/06/30 01:27:54;;;;;;;9.10;7.72;;;23.10;89.00;;;;;;5076448;28;20485;-93
2022/06/30 01:30:21;;;;;;;9.85;8.15;;;23.00;89.10;;;;;;5092588;28;20094;-93
2022/06/30 01:32:47;;;;;;;8.90;8.00;;;23.00;89.20;;;;;;5089965;28;20037;-95
2022/06/30 01:35:12;;;;;;;8.77;7.80;;;23.00;89.40;;;;;;5108095;27;20030;-91
2022/06/30 01:37:49;;;;;;;9.32;7.72;;;22.90;89.40;;;;;;5122145;27;20033;-93
2022/06/30 01:40:16;;;;;;;8.75;7.85;;;22.90;89.60;;;;;;5124401;27;20051;-92
2022/06/30 01:42:42;;;;;;;8.88;7.97;;;22.80;90.00;;;;;;5122968;27;20038;-93
2022/06/30 01:45:08;;;;;;;10.48;8.00;;;22.80;90.40;;;;;;5121714;27;20027;-93
2022/06/30 01:47:35;;;;;;;9.80;8.73;;;22.80;90.20;;;;;;5100057;28;20044;-92
2022/06/30 01:50:06;;;;;;;12.45;9.18;;;22.70;90.20;;;;;;5115162;27;20470;-92
2022/06/30 01:52:32;;;;;;;12.77;9.70;;;22.70;90.30;;;;;;5101504;28;20034;-94
2022/06/30 01:54:58;;;;;;;14.65;8.40;;;22.60;90.50;;;;;;5033203;27;20036;-93
2022/06/30 01:57:24;;;;;;;12.80;8.40;;;22.60;90.70;;;;;;5100583;28;20026;-92
2022/06/30 01:59:49;;;;;;;10.02;8.30;;;22.50;90.80;;;;;;5088466;28;20028;-93
2022/06/30 02:02:20;;;;;;;11.00;8.68;;;22.50;91.00;;;;;;5090408;28;20021;-93
2022/06/30 02:04:50;;;;;;;10.35;9.10;;;22.50;91.20;;;;;;5117007;28;20017;-91
2022/06/30 02:07:17;;;;;;;10.02;8.57;;;22.40;91.50;;;;;;5119568;28;20027;-91
2022/06/30 02:09:44;;;;;;;11.98;9.07;;;22.40;91.70;;;;;;5105630;27;20041;-96
2022/06/30 02:15:01;;;;;;;10.68;9.45;;;22.40;92.20;;;;;;5050598;28;20036;-92
2022/06/30 02:17:26;;;;;;;14.75;9.98;;;22.40;92.50;;;;;;5118089;28;20029;-93
2022/06/30 02:19:53;;;;;;;12.93;10.80;;;22.30;92.70;;;;;;5114915;28;20049;-92
2022/06/30 02:22:18;;;;;;;12.50;10.88;;;22.30;93.00;;;;;;5117496;28;20075;-93
2022/06/30 02:24:44;;;;;;;11.25;10.00;;;22.40;93.20;;;;;;5117429;28;20023;-92
2022/06/30 02:27:10;;;;;;;12.45;10.30;;;22.30;93.40;;;;;;5103393;28;20380;-93
2022/06/30 02:29:35;;;;;;;12.13;10.82;;;22.30;93.50;;;;;;5091796;28;20030;-92
2022/06/30 02:32:01;;;;;;;11.52;10.07;;;22.30;93.50;;;;;;5087451;28;20064;-93
2022/06/30 02:34:28;;;;;;;11.98;10.30;;;22.30;93.60;;;;;;5116882;28;20376;-93
2022/06/30 02:36:57;;;;;;;12.40;10.30;;;22.30;93.70;;;;;;5094416;27;20068;-94
2022/06/30 02:39:22;;;;;;;13.43;10.50;;;22.20;93.90;;;;;;5104560;28;20064;-94
2022/06/30 02:41:48;;;;;;;11.57;10.38;;;22.20;94.00;;;;;;5023354;28;20054;-92
2022/06/30 02:44:14;;;;;;;12.05;10.45;;;22.20;94.20;;;;;;5035107;28;20022;-94
2022/06/30 02:46:40;;;;;;;12.15;10.13;;;22.20;94.30;;;;;;5087762;28;20450;-93
2022/06/30 02:49:07;;;;;;;11.40;10.30;;;22.10;94.20;;;;;;5106794;27;20124;-92
2022/06/30 02:51:33;;;;;;;12.00;10.25;;;22.10;94.40;;;;;;5026547;28;20057;-92
2022/06/30 02:53:58;;;;;;;18.02;10.00;;;22.10;94.60;;;;;;5112311;27;20044;-93
2022/06/30 02:56:24;;;;;;;10.35;9.25;;;22.10;94.80;;;;;;5077054;28;20113;-93
2022/06/30 02:58:50;;;;;;;10.73;9.65;;;22.10;95.00;;;;;;5012748;28;20021;-94
2022/06/30 03:01:16;;;;;;;11.45;10.23;;;22.00;95.20;;;;;;5088002;28;20022;-92
2022/06/30 03:03:42;;;;;;;10.88;9.60;;;22.00;95.50;;;;;;5014681;28;20114;-92
2022/06/30 03:06:07;;;;;;;11.48;10.35;;;22.00;95.70;;;;;;5118245;27;20037;-92
2022/06/30 03:08:33;;;;;;;11.52;10.32;;;22.00;95.80;;;;;;5034226;28;20029;-92
2022/06/30 03:10:59;;;;;;;11.73;10.55;;;21.90;95.90;;;;;;5121275;27;20025;-92
2022/06/30 03:13:25;;;;;;;12.32;11.13;;;21.90;96.10;;;;;;5034282;28;20030;-93
2022/06/30 03:15:51;;;;;;;12.05;10.85;;;21.90;96.30;;;;;;5070558;28;20079;-92
2022/06/30 03:18:17;;;;;;;12.13;10.77;;;21.90;96.50;;;;;;5013436;28;20029;-93
2022/06/30 03:20:43;;;;;;;12.10;10.90;;;21.90;96.70;;;;;;5017417;28;20026;-91
2022/06/30 03:23:09;;;;;;;11.60;10.40;;;21.90;96.80;;;;;;5032146;28;20033;-92
2022/06/30 03:25:34;;;;;;;13.55;11.10;;;21.80;96.90;;;;;;5033177;28;20030;-92
2022/06/30 03:28:02;;;;;;;12.52;10.70;;;21.80;97.00;;;;;;5130901;27;20117;-91
2022/06/30 03:30:28;;;;;;;13.82;12.38;;;21.80;97.10;;;;;;5094863;28;20030;-91
2022/06/30 03:32:53;;;;;;;12.70;11.32;;;21.80;97.20;;;;;;5027017;28;20036;-89
2022/06/30 03:35:19;;;;;;;15.38;12.77;;;21.80;97.60;;;;;;5104799;27;20029;-91
2022/06/30 03:37:46;;;;;;;14.05;12.55;;;21.80;97.40;;;;;;5014765;28;20033;-91
2022/06/30 03:40:12;;;;;;;14.98;13.30;;;21.70;97.60;;;;;;5089396;28;20241;-91
2022/06/30 03:42:38;;;;;;;14.45;12.07;;;21.70;97.70;;;;;;5119696;27;20035;-92
2022/06/30 03:45:05;;;;;;;15.07;12.27;;;21.70;97.80;;;;;;5029764;27;20485;-92
2022/06/30 03:47:30;;;;;;;15.20;11.93;;;21.70;97.80;;;;;;5078766;28;20102;-92
2022/06/30 03:49:56;;;;;;;13.25;11.95;;;21.60;98.00;;;;;;5015938;28;20470;-92
2022/06/30 03:52:22;;;;;;;14.38;12.88;;;21.60;98.10;;;;;;4999395;28;20017;-92
2022/06/30 03:54:47;;;;;;;14.68;12.73;;;21.60;98.20;;;;;;5016058;28;20033;-94
2022/06/30 03:57:13;;;;;;;14.45;12.07;;;21.60;98.30;;;;;;4998546;28;20071;-93
2022/06/30 03:59:39;;;;;;;14.43;12.82;;;21.60;98.40;;;;;;5062195;28;20029;-91
2022/06/30 04:02:06;;;;;;;15.00;13.05;;;21.60;98.50;;;;;;4999065;28;20032;-93
2022/06/30 04:04:32;;;;;;;16.45;13.18;;;21.50;98.60;;;;;;5015824;28;20540;-91
2022/06/30 04:06:58;;;;;;;14.93;13.48;;;21.50;98.70;;;;;;5018995;28;20029;-93
2022/06/30 04:09:24;;;;;;;18.75;13.20;;;21.50;98.80;;;;;;5094208;28;20102;-93
2022/06/30 04:11:50;;;;;;;14.85;13.35;;;21.50;99.00;;;;;;5080189;27;20122;-93
2022/06/30 04:14:15;;;;;;;14.85;13.30;;;21.50;99.00;;;;;;5017457;28;20021;-92
2022/06/30 04:16:41;;;;;;;15.48;12.82;;;21.50;99.10;;;;;;5057518;27;20031;-94
2022/06/30 04:19:07;;;;;;;13.90;12.60;;;21.50;99.20;;;;;;5029106;28;20112;-93
2022/06/30 04:21:32;;;;;;;14.50;13.10;;;21.50;99.30;;;;;;5015148;28;20026;-93
2022/06/30 04:23:58;;;;;;;15.75;14.10;;;21.50;99.50;;;;;;5024021;28;20022;-93
2022/06/30 04:26:24;;;;;;;15.73;14.07;;;21.50;99.50;;;;;;5033720;28;20036;-93
2022/06/30 04:28:49;;;;;;;15.73;14.13;;;21.40;99.60;;;;;;5015668;27;20454;-93
2022/06/30 04:33:59;;;;;;;14.63;13.13;;;21.50;99.90;;;;;;5018088;27;20037;-92
2022/06/30 04:36:25;;;;;;;14.30;12.80;;;21.40;99.90;;;;;;5001777;28;20034;-92
2022/06/30 04:38:51;;;;;;;15.55;13.73;;;21.40;99.90;;;;;;5037380;27;20492;-93
2022/06/30 04:41:25;;;;;;;14.98;13.02;;;21.40;99.90;;;;;;5065384;28;20081;-92
2022/06/30 04:43:52;;;;;;;16.10;14.40;;;21.40;99.90;;;;;;5030792;28;20030;-93
2022/06/30 04:46:17;;;;;;;15.98;14.13;;;21.40;99.90;;;;;;5070998;27;20031;-93
2022/06/30 04:48:43;;;;;;;15.30;13.75;;;21.40;99.90;;;;;;5057848;27;20038;-93
2022/06/30 04:51:09;;;;;;;15.60;14.05;;;21.40;99.90;;;;;;5005136;28;20037;-93
2022/06/30 04:53:34;;;;;;;16.80;15.10;;;21.50;99.90;;;;;;4996140;28;20025;-93
2022/06/30 04:56:00;;;;;;;17.13;15.05;;;21.50;99.90;;;;;;5012092;28;20082;-95
2022/06/30 04:58:26;;;;;;;16.75;15.00;;;21.50;99.90;;;;;;5015202;28;20354;-93
2022/06/30 05:00:52;;;;;;;17.67;15.05;;;21.50;99.90;;;;;;5016085;28;20053;-93
2022/06/30 05:03:17;;;;;;;15.98;14.45;;;21.50;99.90;;;;;;5026377;27;20525;-93
2022/06/30 05:05:43;;;;;;;16.50;14.48;;;21.50;99.90;;;;;;5099504;27;20122;-93
2022/06/30 05:08:09;;;;;;;15.60;13.88;;;21.50;99.90;;;;;;5118926;27;20132;-95
2022/06/30 05:10:35;;;;;;;15.23;13.73;;;21.50;99.90;;;;;;5027581;28;20040;-94
2022/06/30 05:13:00;;;;;;;16.73;14.90;;;21.50;99.90;;;;;;5029759;28;20458;-92
2022/06/30 05:15:26;;;;;;;15.45;13.45;;;21.50;99.90;;;;;;5013933;28;20040;-93
2022/06/30 05:17:51;;;;;;;15.27;13.77;;;21.50;99.90;;;;;;5038674;28;20428;-92
2022/06/30 05:20:17;;;;;;;17.98;14.48;;;21.50;99.90;;;;;;5025356;28;20082;-91
2022/06/30 05:22:43;;;;;;;18.35;14.82;;;21.50;99.90;;;;;;5013736;28;20086;-92
2022/06/30 05:27:53;;;;;;;17.77;15.98;;;21.50;99.90;;;;;;5024396;28;20047;-91
2022/06/30 05:30:19;;;;;;;16.15;14.32;;;21.50;99.90;;;;;;5087703;27;20028;-93
2022/06/30 05:32:47;;;;;;;20.38;16.55;;;21.50;99.90;;;;;;5026366;28;20475;-91
2022/06/30 05:35:13;;;;;;;18.30;16.35;;;21.50;99.90;;;;;;5063237;27;20035;-91
2022/06/30 05:37:39;;;;;;;19.55;15.98;;;21.60;99.90;;;;;;5012759;28;20029;-93
2022/06/30 05:40:06;;;;;;;18.13;16.25;;;21.60;99.90;;;;;;5114002;27;20022;-92
2022/06/30 05:42:32;;;;;;;18.33;16.42;;;21.60;99.90;;;;;;5031189;27;20025;-92
2022/06/30 05:44:57;;;;;;;18.23;16.33;;;21.60;99.90;;;;;;4999939;28;20030;-92
2022/06/30 05:47:23;;;;;;;16.75;15.00;;;21.60;99.90;;;;;;5020985;28;20049;-92
2022/06/30 05:49:49;;;;;;;18.02;16.23;;;21.60;99.90;;;;;;5035327;28;20010;-92
2022/06/30 05:52:14;;;;;;;17.20;15.40;;;21.60;99.90;;;;;;5034600;28;20054;-94
2022/06/30 05:54:40;;;;;;;19.00;16.77;;;21.70;99.90;;;;;;5020109;28;20111;-93
2022/06/30 05:57:06;;;;;;;19.52;16.00;;;21.70;99.90;;;;;;5033624;28;20025;-95
2022/06/30 05:59:33;;;;;;;18.25;16.40;;;21.70;99.90;;;;;;5051813;27;20009;-93
2022/06/30 06:11:32;;;;;;;21.23;17.42;;;21.80;99.90;;;;;;5075300;28;20027;-90
2022/06/30 06:17:30;;;;;;;18.52;15.65;;;21.90;99.90;;;;;;4955675;29;20086;-90
2022/06/30 06:20:02;;;;;;;18.85;16.92;;;21.90;99.90;;;;;;4906823;29;20043;-90
2022/06/30 06:22:54;;;;;;;19.60;17.50;;;21.90;99.90;;;;;;4977136;28;20038;-90
2022/06/30 06:25:28;;;;;;;22.63;19.70;;;22.00;99.90;;;;;;4960009;28;20037;-90
2022/06/30 06:30:56;;;;;;;18.08;16.30;;;22.10;99.90;;;;;;5075481;28;20423;-89
2022/06/30 06:33:22;;;;;;;17.30;15.50;;;22.10;99.90;;;;;;5057332;28;20077;-91
2022/06/30 06:39:28;;;;;;;17.90;14.77;;;22.20;99.90;;;;;;5062908;28;20036;-91
2022/06/30 06:41:59;;;;;;;15.18;13.57;;;22.30;99.90;;;;;;5057827;28;20036;-91
2022/06/30 06:44:26;;;;;;;15.35;13.73;;;22.30;99.90;;;;;;5042516;28;20045;-90
2022/06/30 06:47:37;;;;;;;17.40;14.65;;;22.40;99.90;;;;;;5058203;28;20070;-91
2022/06/30 06:50:18;;;;;;;18.92;14.57;;;22.50;99.90;;;;;;5058938;28;20570;-90
2022/06/30 06:52:50;;;;;;;13.93;12.52;;;22.50;99.90;;;;;;5042862;28;20535;-90
2022/06/30 06:58:57;;;;;;;14.52;11.32;;;22.60;99.90;;;;;;4976091;28;20070;-90
2022/06/30 07:01:49;;;;;;;14.15;12.13;;;22.80;99.90;;;;;;4958067;28;20023;-90
2022/06/30 07:04:14;;;;;;;11.73;10.48;;;22.80;99.90;;;;;;5038624;28;20040;-89
2022/06/30 07:07:12;;;;;;;13.68;10.70;;;22.90;99.90;;;;;;5045974;28;20053;-89
2022/06/30 07:09:38;;;;;;;13.65;12.23;;;22.90;99.90;;;;;;5020744;28;20021;-89
2022/06/30 07:12:04;;;;;;;16.48;13.50;;;23.00;99.90;;;;;;5021842;28;20083;-89
2022/06/30 07:14:30;;;;;;;17.95;13.38;;;23.00;99.90;;;;;;5047886;28;20045;-89
2022/06/30 07:16:55;;;;;;;18.27;14.32;;;23.10;99.90;;;;;;5053953;28;20044;-89
2022/06/30 07:19:21;;;;;;;18.52;14.27;;;23.20;99.90;;;;;;5043903;28;20051;-90
2022/06/30 07:21:47;;;;;;;15.43;13.82;;;23.20;99.90;;;;;;5060672;28;20070;-90
2022/06/30 07:24:13;;;;;;;18.60;13.70;;;23.30;99.90;;;;;;5043513;28;20037;-89
2022/06/30 07:26:38;;;;;;;17.65;15.75;;;23.40;99.90;;;;;;5045040;28;20071;-90
2022/06/30 07:29:16;;;;;;;19.02;15.27;;;23.50;99.90;;;;;;5044275;28;20017;-90
2022/06/30 07:31:51;;;;;;;18.77;16.80;;;23.50;99.90;;;;;;5044509;28;20032;-90
2022/06/30 07:34:17;;;;;;;18.90;15.45;;;23.60;99.90;;;;;;5044436;28;20016;-90
2022/06/30 07:36:42;;;;;;;16.33;14.50;;;23.70;99.90;;;;;;5029997;28;20086;-90
2022/06/30 07:39:08;;;;;;;21.48;15.82;;;23.80;99.90;;;;;;5042642;28;20056;-89
2022/06/30 07:41:34;;;;;;;18.38;15.95;;;23.80;99.90;;;;;;5041241;28;20025;-90
2022/06/30 07:44:01;;;;;;;19.02;16.25;;;23.90;99.90;;;;;;5024536;28;20543;-89
2022/06/30 07:46:27;;;;;;;17.08;15.23;;;24.00;99.90;;;;;;5051324;28;20119;-90
2022/06/30 07:48:53;;;;;;;15.55;14.02;;;24.10;99.90;;;;;;5027944;28;20075;-89
2022/06/30 07:51:20;;;;;;;19.92;16.70;;;24.10;99.90;;;;;;5048703;28;20100;-90
2022/06/30 07:53:58;;;;;;;19.15;15.18;;;24.20;99.90;;;;;;5060278;28;20078;-91
2022/06/30 07:56:23;;;;;;;19.98;16.23;;;24.30;99.90;;;;;;5060091;28;20032;-91
2022/06/30 07:58:50;;;;;;;19.15;15.27;;;24.40;99.70;;;;;;5059488;28;20028;-90
2022/06/30 08:01:19;;;;;;;18.85;16.77;;;24.40;99.50;;;;;;5060050;28;20048;-90
2022/06/30 08:03:45;;;;;;;16.90;15.20;;;24.50;99.40;;;;;;5042142;28;20385;-91
2022/06/30 08:06:11;;;;;;;18.83;14.60;;;24.60;99.30;;;;;;5044804;28;20072;-91
2022/06/30 08:09:24;;;;;;;17.08;14.32;;;24.70;99.20;;;;;;5050283;28;20033;-91
2022/06/30 08:11:53;;;;;;;17.30;15.50;;;24.80;99.10;;;;;;5053647;28;20024;-91
2022/06/30 08:14:19;;;;;;;18.58;15.88;;;24.90;99.00;;;;;;5037426;28;20116;-91
2022/06/30 08:17:00;;;;;;;19.33;16.50;;;24.90;99.10;;;;;;5033027;28;20441;-91
2022/06/30 08:20:12;;;;;;;16.85;15.05;;;25.00;98.70;;;;;;5045744;28;20115;-92
2022/06/30 08:22:38;;;;;;;19.73;16.10;;;25.10;98.70;;;;;;5057024;28;20025;-91
2022/06/30 08:25:05;;;;;;;18.95;15.15;;;25.20;98.50;;;;;;5038597;28;20040;-91
2022/06/30 08:27:40;;;;;;;18.15;15.07;;;25.20;98.40;;;;;;5052265;28;20013;-91
2022/06/30 08:30:06;;;;;;;18.45;14.10;;;25.30;98.40;;;;;;5052646;28;20057;-90
2022/06/30 08:32:41;;;;;;;15.98;12.48;;;25.40;98.40;;;;;;5022857;28;20025;-91
2022/06/30 08:35:07;;;;;;;20.75;12.60;;;25.40;98.20;;;;;;5044837;28;20021;-91
2022/06/30 08:37:33;;;;;;;15.65;12.85;;;25.50;98.10;;;;;;5047074;28;20044;-91
2022/06/30 08:42:43;;;;;;;17.98;13.38;;;25.60;96.90;;;;;;5056400;28;20087;-89
2022/06/30 08:45:16;;;;;;;16.10;12.45;;;25.60;96.50;;;;;;5042932;28;20017;-90
2022/06/30 08:47:46;;;;;;;15.65;11.60;;;25.60;96.60;;;;;;5046986;28;20032;-89
2022/06/30 08:50:16;;;;;;;16.67;14.43;;;25.70;96.90;;;;;;5038899;28;20035;-90
2022/06/30 08:52:55;;;;;;;18.77;14.88;;;25.70;96.80;;;;;;5048194;28;20025;-90
2022/06/30 08:55:26;;;;;;;18.60;13.98;;;25.70;96.50;;;;;;5054018;28;20025;-90
2022/06/30 08:57:55;;;;;;;15.25;11.18;;;25.80;96.50;;;;;;5058302;28;20047;-91
2022/06/30 09:00:21;;;;;;;15.52;10.32;;;25.80;96.60;;;;;;5052447;28;20099;-90
2022/06/30 09:02:47;;;;;;;15.35;9.10;;;25.90;96.80;;;;;;5033858;28;20058;-91
2022/06/30 09:05:34;;;;;;;10.15;7.93;;;25.90;96.80;;;;;;5047951;28;20447;-90
2022/06/30 09:08:26;;;;;;;9.57;6.47;;;26.00;96.30;;;;;;5044939;28;20106;-90
2022/06/30 09:10:58;;;;;;;7.65;5.13;;;26.10;96.00;;;;;;5070442;28;20032;-91
2022/06/30 09:13:24;;;;;;;9.07;5.13;;;26.10;95.60;;;;;;5058556;28;20120;-92
2022/06/30 09:19:16;;;;;;;6.93;4.55;;;26.20;94.90;;;;;;5076193;28;20035;-91
2022/06/30 09:28:51;;;;;;;11.85;5.72;;;26.30;93.60;;;;;;5054956;28;20028;-92
2022/06/30 09:31:34;;;;;;;9.15;5.50;;;26.30;93.50;;;;;;5038180;28;20025;-92
2022/06/30 09:34:21;;;;;;;9.13;4.65;;;26.30;93.50;;;;;;5038967;28;20179;-93
2022/06/30 09:36:50;;;;;;;7.60;5.10;;;26.40;93.50;;;;;;5039589;28;20029;-92
2022/06/30 09:39:28;;;;;;;8.75;4.40;;;26.50;93.40;;;;;;5039559;28;20041;-92
2022/06/30 09:41:54;;;;;;;9.57;3.42;;;26.50;93.10;;;;;;5038770;28;20139;-93
2022/06/30 09:47:57;;;;;;;7.40;3.58;;;26.50;92.60;;;;;;5058418;28;20115;-94
2022/06/30 09:50:23;;;;;;;7.15;3.03;;;26.60;92.50;;;;;;5038372;28;20053;-93
2022/06/30 09:56:19;;;;;;;8.50;3.50;;;26.70;92.70;;;;;;5072389;28;20058;-93
2022/06/30 09:58:46;;;;;;;7.32;3.90;;;26.70;92.40;;;;;;5043538;28;20020;-93
2022/06/30 10:01:52;;;;;;;8.98;3.60;;;26.70;91.60;;;;;;5043236;28;20052;-92
2022/06/30 10:04:19;;;;;;;6.70;3.05;;;26.80;91.60;;;;;;5060156;28;20453;-93
2022/06/30 10:06:46;;;;;;;6.85;3.15;;;26.80;91.80;;;;;;5058797;28;20531;-94
2022/06/30 10:09:17;;;;;;;10.10;3.15;;;26.80;91.30;;;;;;5042960;28;20473;-93
2022/06/30 10:11:44;;;;;;;8.48;3.22;;;26.90;90.60;;;;;;5059368;28;20013;-93
2022/06/30 10:14:11;;;;;;;7.72;3.83;;;26.90;90.20;;;;;;5042636;28;20031;-94
2022/06/30 10:16:41;;;;;;;8.93;3.85;;;26.90;90.10;;;;;;5057684;28;20028;-94
2022/06/30 10:19:09;;;;;;;11.50;4.32;;;27.00;90.10;;;;;;5041445;28;20077;-91
2022/06/30 10:21:37;;;;;;;11.68;3.90;;;27.00;90.40;;;;;;5057419;28;20025;-92
2022/06/30 10:24:06;;;;;;;10.07;4.35;;;27.00;90.20;;;;;;5041354;28;20036;-91
2022/06/30 10:29:53;;;;;;;8.90;4.05;;;27.10;90.00;;;;;;5076369;28;20032;-91
2022/06/30 10:32:37;;;;;;;9.57;3.58;;;27.20;90.10;;;;;;5056720;28;20117;-92
2022/06/30 10:35:33;;;;;;;8.98;4.03;;;27.20;90.20;;;;;;5057642;28;20021;-92
2022/06/30 10:38:09;;;;;;;7.70;3.88;;;27.20;90.00;;;;;;5058152;28;20078;-90
2022/06/30 10:40:57;;;;;;;10.20;4.65;;;27.30;90.10;;;;;;5058267;28;20047;-93
2022/06/30 10:50:34;;;;;;;7.72;4.68;;;27.40;89.00;;;;;;5080542;28;20070;-91
2022/06/30 10:53:05;;;;;;;7.90;4.22;;;27.50;89.20;;;;;;5080204;28;20527;-91
2022/06/30 10:55:49;;;;;;;10.00;4.65;;;27.50;89.00;;;;;;5093622;28;20489;-91
2022/06/30 10:58:15;;;;;;;9.27;4.65;;;27.50;89.30;;;;;;5056619;28;20043;-92
2022/06/30 11:01:01;;;;;;;6.75;4.00;;;27.60;89.20;;;;;;5044995;28;20028;-92
2022/06/30 11:03:30;;;;;;;7.57;4.18;;;27.60;89.00;;;;;;5061421;28;20029;-92
2022/06/30 11:06:06;;;;;;;7.45;4.00;;;27.70;88.10;;;;;;5061930;28;20078;-92
2022/06/30 11:08:47;;;;;;;8.70;4.00;;;27.70;87.10;;;;;;5060909;28;20028;-91
2022/06/30 11:11:22;;;;;;;9.07;3.80;;;27.70;86.50;;;;;;5060099;28;20044;-89
2022/06/30 11:20:17;;;;;;;8.13;3.85;;;27.80;87.30;;;;;;5078923;28;20214;-92
2022/06/30 11:22:46;;;;;;;5.35;2.88;;;27.80;87.10;;;;;;5028407;28;20138;-92
2022/06/30 11:31:22;;;;;;;6.97;3.50;;;28.00;87.80;;;;;;5079136;28;20082;-90
2022/06/30 11:34:06;;;;;;;7.95;4.18;;;28.00;87.10;;;;;;5060371;28;20016;-89
2022/06/30 11:37:10;;;;;;;5.82;3.42;;;28.10;87.20;;;;;;5060037;28;20025;-90
2022/06/30 11:39:36;;;;;;;6.72;3.00;;;28.10;87.00;;;;;;5060566;28;20032;-89
2022/06/30 11:42:11;;;;;;;8.00;3.88;;;28.10;87.40;;;;;;5042978;28;20028;-88
2022/06/30 11:44:40;;;;;;;7.32;3.42;;;28.20;87.10;;;;;;5059754;28;20028;-89
2022/06/30 11:47:10;;;;;;;8.52;3.53;;;28.30;86.00;;;;;;5059838;28;20032;-89
2022/06/30 11:49:43;;;;;;;8.10;3.22;;;28.30;85.80;;;;;;5043005;28;20024;-88
2022/06/30 11:52:29;;;;;;;7.68;3.10;;;28.40;86.10;;;;;;5059947;28;20012;-89
2022/06/30 11:54:56;;;;;;;7.65;3.40;;;28.40;86.30;;;;;;5071971;28;20470;-90
2022/06/30 11:57:32;;;;;;;7.80;2.72;;;28.50;86.10;;;;;;5038340;28;20029;-89
2022/06/30 12:00:06;;;;;;;6.40;2.97;;;28.50;86.20;;;;;;5038688;28;20025;-92
2022/06/30 12:02:33;;;;;;;7.90;3.15;;;28.60;85.90;;;;;;5040205;28;20040;-93
2022/06/30 12:05:04;;;;;;;7.50;3.13;;;28.60;84.30;;;;;;5038914;28;20029;-88
2022/06/30 12:07:32;;;;;;;7.38;3.40;;;28.70;84.00;;;;;;5038311;28;20056;-90
2022/06/30 12:09:58;;;;;;;8.02;4.00;;;28.70;84.00;;;;;;5039097;28;20025;-91
2022/06/30 12:12:27;;;;;;;9.50;3.33;;;28.80;83.70;;;;;;5038544;28;20021;-90
2022/06/30 12:15:00;;;;;;;6.85;2.78;;;28.80;83.70;;;;;;5038783;28;20067;-91
2022/06/30 12:17:38;;;;;;;6.72;2.40;;;28.80;84.00;;;;;;5053627;28;20032;-91
2022/06/30 12:22:43;;;;;;;7.07;3.05;;;28.90;83.80;;;;;;3280362;26;20140;-89
2022/06/30 12:25:09;;;;;;;8.82;2.60;;;29.00;83.70;;;;;;5056216;28;20124;-90
2022/06/30 12:27:46;;;;;;;6.70;2.50;;;29.00;83.40;;;;;;5038010;28;20100;-89
2022/06/30 12:30:20;;;;;;;6.82;3.55;;;29.10;83.40;;;;;;5038037;28;20029;-89
2022/06/30 12:33:12;;;;;;;5.72;2.28;;;29.20;82.80;;;;;;5038111;28;20017;-89
2022/06/30 12:35:39;;;;;;;8.27;3.20;;;29.20;83.60;;;;;;5017888;28;20075;-89
2022/06/30 12:38:24;;;;;;;8.30;2.70;;;29.30;83.20;;;;;;5021634;28;20025;-88
2022/06/30 12:40:50;;;;;;;5.68;2.20;;;29.30;83.60;;;;;;5037866;28;20405;-88
2022/06/30 12:43:18;;;;;;;6.00;2.50;;;29.40;83.40;;;;;;5037732;28;20025;-88
2022/06/30 12:48:54;;;;;;;6.07;2.33;;;29.50;83.10;;;;;;5056363;28;20037;-88
2022/06/30 12:51:38;;;;;;;6.32;2.00;;;29.50;82.10;;;;;;5038745;28;20028;-89
2022/06/30 12:54:15;;;;;;;6.35;2.28;;;29.60;81.30;;;;;;5038397;28;20025;-89
2022/06/30 12:56:50;;;;;;;5.82;2.58;;;29.60;81.10;;;;;;5037721;28;20471;-88
2022/06/30 12:59:19;;;;;;;6.40;2.60;;;29.70;82.00;;;;;;5022146;28;20033;-87
2022/06/30 13:01:55;;;;;;;6.33;2.47;;;29.70;82.20;;;;;;5021587;28;20440;-88
2022/06/30 13:04:24;;;;;;;4.90;2.00;;;29.80;82.60;;;;;;5037922;28;20287;-88
2022/06/30 13:06:52;;;;;;;7.63;2.40;;;29.80;82.50;;;;;;5037828;28;20029;-88
2022/06/30 13:09:23;;;;;;;5.78;2.00;;;29.90;83.00;;;;;;5037641;28;20023;-90
2022/06/30 13:11:55;;;;;;;8.52;2.17;;;29.90;82.80;;;;;;5037670;28;20108;-89
2022/06/30 13:14:23;;;;;;;7.57;2.55;;;29.90;81.60;;;;;;5037293;28;20025;-90
2022/06/30 13:16:53;;;;;;;5.00;2.35;;;29.90;80.00;;;;;;5037797;28;20036;-89
2022/06/30 13:19:19;;;;;;;;;;;29.80;78.90;;;;;;5038299;28;20029;-90
2022/06/30 13:21:49;;;;;;;8.13;2.47;;;29.80;75.70;;;;;;5048871;28;20265;-89
2022/06/30 13:24:19;;;;;;;5.65;2.20;;;29.70;77.70;;;;;;5038316;28;20021;-89
2022/06/30 13:26:47;;;;;;;;;;;29.70;78.40;;;;;;5038601;28;20033;-89
2022/06/30 13:29:14;;;;;;;5.45;1.75;;;29.70;78.50;;;;;;5071605;28;19909;-89
2022/06/30 13:31:46;;;;;;;6.25;2.03;;;29.70;78.40;;;;;;5038403;28;20096;-90
2022/06/30 13:34:12;;;;;;;5.75;2.10;;;29.80;78.60;;;;;;5055893;28;20021;-89
2022/06/30 13:36:43;;;;;;;4.00;1.70;;;29.80;78.50;;;;;;5036945;28;20534;-88
2022/06/30 13:39:10;;;;;;;9.57;2.33;;;29.90;79.20;;;;;;5037140;28;20040;-88
2022/06/30 13:41:36;;;;;;;3.42;1.70;;;30.00;78.40;;;;;;5037252;28;20048;-88
2022/06/30 13:44:04;;;;;;;7.65;2.10;;;30.00;78.40;;;;;;5036788;28;20032;-88
2022/06/30 13:46:31;;;;;;;6.95;2.40;;;30.10;77.80;;;;;;5036754;28;20036;-88
2022/06/30 13:48:58;;;;;;;6.43;2.00;;;30.10;77.80;;;;;;5036510;28;20394;-89
2022/06/30 13:51:24;;;;;;;5.10;1.98;;;30.20;77.50;;;;;;5021052;28;20111;-89
2022/06/30 13:53:50;;;;;;;6.15;2.00;;;30.20;77.20;;;;;;5054410;28;20036;-90
2022/06/30 13:56:16;;;;;;;4.90;2.17;;;30.30;76.80;;;;;;5036735;28;20025;-89
2022/06/30 13:58:43;;;;;;;4.65;2.15;;;30.30;77.00;;;;;;5037061;28;20467;-89
2022/06/30 14:01:09;;;;;;;9.48;1.77;;;30.40;77.40;;;;;;5054134;28;20075;-89
2022/06/30 14:03:35;;;;;;;3.97;1.67;;;30.50;77.50;;;;;;5036832;28;20032;-89
2022/06/30 14:06:02;;;;;;;5.28;2.10;;;30.50;76.70;;;;;;5020462;28;20029;-89
2022/06/30 14:08:31;;;;;;;7.35;2.20;;;30.50;75.00;;;;;;5053803;28;20104;-89
2022/06/30 14:11:34;;;;;;;5.40;1.90;;;30.60;74.80;;;;;;5038501;28;20021;-89